Time;durP1;ratioP1;P1;durP2;ratioP2;P2;SDS_P1;SDS_P2;PMS_P1;PMS_P2;Temp;Humidity;BMP_temperature;BMP_pressure;BME280_temperature;BME280_humidity;BME280_pressure;Samples;Min_cycle;Max_cycle;Signal;HPM_P1;HPM_P2
2022/05/15 00:00:57;;;;;;;6.88;3.53;;;15.80;99.90;;;;;;5013865;28;20030;-68
2022/05/15 00:03:38;;;;;;;8.18;3.70;;;15.80;99.90;;;;;;5013552;28;20052;-65
2022/05/15 00:06:05;;;;;;;7.72;3.05;;;15.70;99.90;;;;;;5010457;28;20044;-69
2022/05/15 00:08:34;;;;;;;6.22;3.40;;;15.70;99.90;;;;;;5012910;28;20033;-64
2022/05/15 00:11:01;;;;;;;6.18;3.53;;;15.60;99.90;;;;;;5012353;28;20109;-70
2022/05/15 00:13:27;;;;;;;7.53;3.35;;;15.60;99.90;;;;;;5013868;28;20032;-69
2022/05/15 00:15:54;;;;;;;6.22;3.08;;;15.60;99.90;;;;;;5012674;28;20018;-70
2022/05/15 00:18:21;;;;;;;8.80;3.88;;;15.60;99.90;;;;;;5012664;28;20034;-70
2022/05/15 00:20:49;;;;;;;7.00;3.35;;;15.60;99.90;;;;;;5012539;28;20080;-63
2022/05/15 00:23:17;;;;;;;6.72;2.97;;;15.60;99.90;;;;;;5013431;28;20106;-63
2022/05/15 00:25:43;;;;;;;7.60;3.78;;;15.60;99.90;;;;;;5011681;28;20116;-64
2022/05/15 00:28:10;;;;;;;8.20;3.42;;;15.60;99.90;;;;;;5014199;28;20108;-70
2022/05/15 00:30:36;;;;;;;8.48;3.75;;;15.50;99.90;;;;;;5012389;28;20025;-70
2022/05/15 00:33:03;;;;;;;7.82;3.60;;;15.50;99.90;;;;;;5012528;28;20472;-70
2022/05/15 00:35:30;;;;;;;5.60;4.07;;;15.50;99.90;;;;;;5012662;28;20117;-64
2022/05/15 00:37:56;;;;;;;7.10;3.75;;;15.40;99.90;;;;;;5012941;28;20020;-69
2022/05/15 00:40:23;;;;;;;6.43;3.72;;;15.40;99.90;;;;;;5012232;28;20519;-70
2022/05/15 00:42:50;;;;;;;8.32;3.80;;;15.30;99.90;;;;;;5010348;28;20045;-70
2022/05/15 00:45:18;;;;;;;10.43;4.15;;;15.20;99.90;;;;;;5010797;28;20694;-69
2022/05/15 00:47:44;;;;;;;5.68;3.80;;;15.20;99.90;;;;;;4993758;28;20054;-69
2022/05/15 00:50:22;;;;;;;6.78;3.90;;;15.20;99.90;;;;;;5010703;28;20093;-72
2022/05/15 00:52:51;;;;;;;9.63;3.72;;;15.20;99.90;;;;;;5012946;28;20443;-71
2022/05/15 00:55:24;;;;;;;7.05;3.90;;;15.20;99.90;;;;;;5011638;28;20028;-70
2022/05/15 00:58:04;;;;;;;8.40;4.25;;;15.10;99.90;;;;;;5011278;28;20423;-71
2022/05/15 01:00:33;;;;;;;13.02;4.20;;;15.10;99.90;;;;;;5012395;28;20132;-71
2022/05/15 01:03:11;;;;;;;5.72;3.63;;;15.00;99.90;;;;;;5012162;28;20028;-71
2022/05/15 01:05:44;;;;;;;12.10;3.75;;;15.00;99.90;;;;;;5012256;28;20044;-71
2022/05/15 01:08:11;;;;;;;5.32;3.72;;;14.90;99.90;;;;;;5012158;28;20037;-71
2022/05/15 01:10:42;;;;;;;8.57;4.25;;;15.00;99.90;;;;;;5012456;28;20022;-71
2022/05/15 01:13:10;;;;;;;10.70;4.72;;;14.90;99.90;;;;;;5011011;28;20029;-71
2022/05/15 01:15:38;;;;;;;7.22;3.92;;;14.90;99.90;;;;;;5010992;28;20030;-70
2022/05/15 01:18:08;;;;;;;7.45;3.78;;;14.90;99.90;;;;;;5014675;28;20113;-72
2022/05/15 01:20:36;;;;;;;7.07;3.67;;;14.90;99.90;;;;;;5010372;28;20064;-70
2022/05/15 01:23:02;;;;;;;8.45;3.95;;;14.80;99.90;;;;;;5012661;28;20113;-72
2022/05/15 01:25:34;;;;;;;9.18;3.85;;;14.90;99.90;;;;;;5011144;28;20140;-71
2022/05/15 01:28:05;;;;;;;7.43;3.97;;;14.90;99.90;;;;;;5009960;28;20635;-72
2022/05/15 01:30:34;;;;;;;9.38;3.72;;;14.70;99.90;;;;;;5010123;28;20049;-70
2022/05/15 01:33:00;;;;;;;3.97;3.08;;;14.70;99.90;;;;;;5011996;28;20618;-71
2022/05/15 01:35:27;;;;;;;4.68;3.67;;;14.70;99.90;;;;;;5010852;28;20061;-71
2022/05/15 01:37:52;;;;;;;8.32;3.72;;;14.60;99.90;;;;;;5011524;28;20459;-70
2022/05/15 01:40:19;;;;;;;5.00;3.75;;;14.60;99.90;;;;;;5011911;28;20038;-71
2022/05/15 01:42:45;;;;;;;8.00;3.72;;;14.60;99.90;;;;;;5010402;28;20030;-72
2022/05/15 01:45:13;;;;;;;6.32;3.80;;;14.50;99.90;;;;;;5008655;28;20037;-71
2022/05/15 01:47:39;;;;;;;9.20;3.63;;;14.60;99.90;;;;;;4991343;28;20042;-71
2022/05/15 01:50:08;;;;;;;9.88;3.85;;;14.50;99.90;;;;;;4990674;28;20460;-70
2022/05/15 01:52:35;;;;;;;7.28;3.70;;;14.50;99.90;;;;;;4981531;28;20125;-71
2022/05/15 01:55:01;;;;;;;6.43;3.90;;;14.50;99.90;;;;;;4986310;28;20031;-71
2022/05/15 01:57:28;;;;;;;6.55;3.85;;;14.40;99.90;;;;;;4990723;28;20030;-72
2022/05/15 01:59:54;;;;;;;9.10;4.43;;;14.40;99.90;;;;;;4990841;28;20109;-71
2022/05/15 02:02:20;;;;;;;10.55;4.32;;;14.50;99.90;;;;;;4991828;28;20027;-71
2022/05/15 02:04:46;;;;;;;15.05;4.20;;;14.50;99.90;;;;;;4993640;28;20027;-72
2022/05/15 02:07:12;;;;;;;9.40;4.30;;;14.40;99.90;;;;;;4992042;28;20077;-72
2022/05/15 02:09:38;;;;;;;8.23;4.05;;;14.40;99.90;;;;;;4989632;28;20050;-71
2022/05/15 02:12:05;;;;;;;7.47;3.65;;;14.40;99.90;;;;;;4991594;28;20022;-72
2022/05/15 02:14:31;;;;;;;7.38;4.05;;;14.50;99.90;;;;;;4991256;28;20053;-71
2022/05/15 02:16:56;;;;;;;6.45;3.95;;;14.40;99.90;;;;;;4991749;28;20461;-70
2022/05/15 02:19:22;;;;;;;6.68;3.88;;;14.40;99.90;;;;;;4992437;28;20026;-70
2022/05/15 02:21:48;;;;;;;6.75;3.88;;;14.40;99.90;;;;;;4983005;28;20484;-70
2022/05/15 02:24:15;;;;;;;11.57;4.53;;;14.40;99.90;;;;;;4973238;28;20031;-70
2022/05/15 02:26:41;;;;;;;5.88;3.22;;;14.40;99.90;;;;;;4986194;28;20535;-70
2022/05/15 02:29:07;;;;;;;11.02;3.70;;;14.40;99.90;;;;;;4993388;28;20035;-73
2022/05/15 02:31:34;;;;;;;7.78;4.70;;;14.40;99.90;;;;;;4991369;28;20031;-69
2022/05/15 02:34:00;;;;;;;17.38;4.82;;;14.40;99.90;;;;;;5005719;28;20061;-71
2022/05/15 02:36:28;;;;;;;7.47;4.40;;;14.40;99.90;;;;;;4978365;28;20116;-73
2022/05/15 02:38:55;;;;;;;10.05;4.00;;;14.40;99.90;;;;;;4978179;28;20027;-72
2022/05/15 02:41:22;;;;;;;6.13;3.97;;;14.30;99.90;;;;;;4981943;28;20031;-71
2022/05/15 02:43:48;;;;;;;10.98;4.28;;;14.10;99.90;;;;;;4978380;28;20033;-70
2022/05/15 02:46:14;;;;;;;8.38;3.55;;;14.00;99.90;;;;;;5002075;28;20134;-72
2022/05/15 02:51:25;;;;;;;10.30;4.32;;;13.90;99.90;;;;;;5014691;28;20050;-66
2022/05/15 02:53:51;;;;;;;8.43;4.38;;;14.00;99.90;;;;;;5014363;28;20041;-67
2022/05/15 02:56:24;;;;;;;7.85;4.60;;;13.90;99.90;;;;;;4997837;28;20025;-70
2022/05/15 02:58:51;;;;;;;12.80;4.43;;;13.90;99.90;;;;;;5014132;28;20042;-65
2022/05/15 03:01:18;;;;;;;7.47;3.67;;;13.90;99.90;;;;;;5015555;28;20384;-70
2022/05/15 03:03:44;;;;;;;10.43;4.18;;;13.90;99.90;;;;;;5014083;28;20129;-73
2022/05/15 03:06:11;;;;;;;21.58;4.38;;;13.90;99.90;;;;;;4998011;28;20485;-66
2022/05/15 03:08:41;;;;;;;11.48;4.47;;;13.90;99.90;;;;;;5014907;28;20037;-65
2022/05/15 03:11:08;;;;;;;9.20;5.18;;;13.90;99.90;;;;;;5015579;28;20029;-73
2022/05/15 03:13:35;;;;;;;9.50;4.68;;;13.70;99.90;;;;;;5013977;28;20033;-67
2022/05/15 03:16:03;;;;;;;10.93;5.00;;;13.70;99.90;;;;;;5015274;28;20426;-65
2022/05/15 03:18:28;;;;;;;10.38;5.40;;;13.80;99.90;;;;;;5015346;28;20018;-71
2022/05/15 03:20:54;;;;;;;13.50;5.05;;;13.90;99.90;;;;;;5013833;28;20040;-73
2022/05/15 03:23:20;;;;;;;12.38;5.43;;;13.90;99.90;;;;;;5013867;28;20030;-72
2022/05/15 03:25:46;;;;;;;14.63;5.40;;;13.90;99.90;;;;;;5013177;28;20034;-70
2022/05/15 03:28:12;;;;;;;10.13;5.40;;;13.90;99.90;;;;;;5013865;28;20018;-73
2022/05/15 03:30:40;;;;;;;9.10;5.18;;;14.00;99.90;;;;;;5015401;28;20396;-67
2022/05/15 03:33:08;;;;;;;13.02;5.18;;;14.30;99.90;;;;;;5014914;28;20415;-72
2022/05/15 03:35:34;;;;;;;9.05;5.28;;;14.70;99.90;;;;;;5001796;28;20041;-68
2022/05/15 03:38:01;;;;;;;16.20;5.80;;;15.20;99.90;;;;;;5008390;28;20108;-72
2022/05/15 03:40:27;;;;;;;13.05;5.25;;;15.60;99.90;;;;;;4994341;28;20046;-68
2022/05/15 03:42:54;;;;;;;11.90;5.35;;;16.20;99.90;;;;;;5022457;28;20147;-66
2022/05/15 03:45:20;;;;;;;9.25;5.68;;;16.90;99.90;;;;;;5018612;28;20058;-72
2022/05/15 03:48:01;;;;;;;7.65;5.25;;;17.50;99.90;;;;;;5022355;28;20057;-72
2022/05/15 03:50:35;;;;;;;8.45;5.03;;;18.10;99.40;;;;;;5025826;28;20042;-73
2022/05/15 03:53:02;;;;;;;13.90;5.13;;;18.90;96.30;;;;;;5016818;28;20484;-72
2022/05/15 03:55:28;;;;;;;6.78;4.32;;;19.30;93.90;;;;;;5015133;28;20392;-73
2022/05/15 03:57:56;;;;;;;9.18;4.80;;;19.30;92.30;;;;;;5014011;28;20033;-73
2022/05/15 04:00:23;;;;;;;7.47;4.05;;;20.00;91.80;;;;;;5012426;28;20030;-72
2022/05/15 04:02:50;;;;;;;9.18;4.70;;;20.70;90.30;;;;;;5013043;28;20068;-72
2022/05/15 04:05:15;;;;;;;6.28;4.35;;;21.20;85.50;;;;;;5014578;28;20053;-72
2022/05/15 04:07:44;;;;;;;8.07;4.78;;;21.80;82.90;;;;;;5012935;28;20030;-72
2022/05/15 04:10:11;;;;;;;9.07;5.07;;;22.30;79.90;;;;;;5013748;28;20150;-72
2022/05/15 04:12:37;;;;;;;10.68;4.65;;;22.60;77.80;;;;;;5012678;28;20030;-73
2022/05/15 04:15:03;;;;;;;8.85;4.90;;;23.10;75.80;;;;;;4996722;28;20056;-73
2022/05/15 04:17:29;;;;;;;8.80;4.75;;;23.50;73.90;;;;;;5012794;28;20064;-71
2022/05/15 04:19:55;;;;;;;11.32;4.43;;;23.50;73.10;;;;;;5012342;28;20033;-67
2022/05/15 04:22:21;;;;;;;10.30;4.80;;;23.60;72.90;;;;;;5014011;28;20099;-70
2022/05/15 04:24:47;;;;;;;9.77;4.35;;;23.80;72.50;;;;;;5013090;28;20030;-73
2022/05/15 04:27:13;;;;;;;9.13;4.78;;;24.00;71.70;;;;;;4996529;28;20411;-71
2022/05/15 04:29:39;;;;;;;10.40;5.13;;;23.70;71.20;;;;;;5013912;28;20041;-73
2022/05/15 04:32:06;;;;;;;7.25;4.60;;;24.40;70.70;;;;;;5013175;28;20380;-71
2022/05/15 04:34:32;;;;;;;13.18;4.60;;;24.90;70.10;;;;;;5013836;28;20022;-72
2022/05/15 04:36:57;;;;;;;7.10;4.50;;;24.80;68.90;;;;;;5014589;28;20026;-73
2022/05/15 04:39:23;;;;;;;9.43;4.20;;;24.90;69.80;;;;;;5013268;28;20101;-73
2022/05/15 04:41:49;;;;;;;6.82;4.07;;;25.60;68.20;;;;;;5013800;28;20026;-73
2022/05/15 04:44:15;;;;;;;7.75;4.35;;;25.90;67.80;;;;;;5012686;28;20025;-69
2022/05/15 04:46:41;;;;;;;10.00;4.53;;;26.00;66.90;;;;;;5013134;28;20060;-73
2022/05/15 04:49:07;;;;;;;6.93;4.75;;;25.70;67.60;;;;;;5013579;28;20471;-73
2022/05/15 04:51:33;;;;;;;7.32;4.25;;;25.40;67.50;;;;;;5013493;28;20494;-73
2022/05/15 04:53:59;;;;;;;8.23;4.50;;;25.60;67.70;;;;;;5012943;28;20022;-72
2022/05/15 04:56:26;;;;;;;8.68;4.57;;;25.60;67.80;;;;;;5012962;28;20117;-74
2022/05/15 04:58:52;;;;;;;10.98;5.00;;;25.00;68.40;;;;;;5013297;28;20026;-71
2022/05/15 05:01:18;;;;;;;7.82;3.88;;;22.90;71.50;;;;;;5003531;28;20026;-71
2022/05/15 05:03:44;;;;;;;9.85;4.53;;;22.80;73.00;;;;;;5011101;28;20495;-73
2022/05/15 05:06:11;;;;;;;13.82;4.22;;;22.20;74.70;;;;;;5013124;28;20547;-73
2022/05/15 05:08:37;;;;;;;8.27;4.18;;;21.70;76.70;;;;;;5013031;28;20076;-74
2022/05/15 05:11:03;;;;;;;9.15;3.95;;;21.10;79.20;;;;;;5012958;28;20472;-73
2022/05/15 05:13:29;;;;;;;7.43;3.80;;;20.90;81.30;;;;;;4996209;28;20025;-71
2022/05/15 05:15:55;;;;;;;6.63;3.78;;;20.80;82.90;;;;;;4993403;28;20081;-72
2022/05/15 05:18:21;;;;;;;10.52;4.47;;;20.60;84.70;;;;;;5007177;28;20058;-73
2022/05/15 05:20:47;;;;;;;6.57;3.63;;;20.30;84.60;;;;;;5012386;28;20029;-73
2022/05/15 05:23:13;;;;;;;8.07;3.80;;;20.10;89.10;;;;;;5012119;28;20018;-74
2022/05/15 05:25:39;;;;;;;7.90;4.32;;;19.90;91.50;;;;;;5011915;28;20029;-73
2022/05/15 05:28:05;;;;;;;7.18;3.92;;;20.10;92.10;;;;;;5011605;28;20033;-73
2022/05/15 05:30:32;;;;;;;9.13;3.72;;;20.40;91.40;;;;;;5011532;28;20041;-73
2022/05/15 05:32:58;;;;;;;10.48;3.88;;;20.60;90.20;;;;;;5011982;28;20029;-72
2022/05/15 05:35:26;;;;;;;8.43;3.83;;;20.10;91.00;;;;;;5012190;28;20025;-73
2022/05/15 05:37:52;;;;;;;11.52;4.05;;;19.90;91.30;;;;;;5011538;28;20022;-67
2022/05/15 05:40:20;;;;;;;14.60;4.55;;;20.20;93.30;;;;;;5012536;28;20018;-73
2022/05/15 05:42:46;;;;;;;11.07;5.10;;;20.00;92.60;;;;;;5012009;28;20056;-73
2022/05/15 05:45:12;;;;;;;10.60;5.88;;;20.40;92.80;;;;;;5012166;28;20472;-71
2022/05/15 05:47:38;;;;;;;9.85;6.15;;;20.30;91.40;;;;;;5011505;28;20054;-73
2022/05/15 05:50:09;;;;;;;13.60;7.68;;;20.50;91.50;;;;;;5012442;28;20120;-72
2022/05/15 05:52:38;;;;;;;18.50;8.90;;;20.80;91.90;;;;;;5011521;28;20041;-71
2022/05/15 05:55:06;;;;;;;16.38;9.30;;;20.90;93.00;;;;;;5003723;28;20024;-73
2022/05/15 05:57:32;;;;;;;15.63;7.70;;;20.90;90.10;;;;;;5009956;28;20030;-69
2022/05/15 05:59:58;;;;;;;14.45;7.35;;;21.20;91.50;;;;;;5010770;28;20033;-70
2022/05/15 06:02:25;;;;;;;11.63;5.93;;;21.10;90.90;;;;;;5011582;28;20021;-72
2022/05/15 06:04:52;;;;;;;10.82;5.20;;;21.30;88.70;;;;;;5029574;28;20490;-71
2022/05/15 06:07:21;;;;;;;11.10;4.68;;;21.40;91.60;;;;;;5027816;28;20257;-67
2022/05/15 06:09:49;;;;;;;11.65;4.72;;;21.60;90.90;;;;;;5011099;28;20531;-71
2022/05/15 06:12:18;;;;;;;10.70;4.07;;;21.80;90.90;;;;;;5011186;28;20034;-72
2022/05/15 06:14:44;;;;;;;9.45;4.43;;;21.70;90.50;;;;;;5011813;28;20049;-72
2022/05/15 06:17:10;;;;;;;7.78;4.07;;;21.80;90.30;;;;;;5012284;28;20484;-71
2022/05/15 06:19:37;;;;;;;8.70;4.28;;;21.60;90.30;;;;;;5011432;28;20519;-68
2022/05/15 06:22:03;;;;;;;7.78;3.70;;;21.60;88.20;;;;;;5011479;28;20423;-72
2022/05/15 06:24:29;;;;;;;10.30;3.70;;;22.10;88.70;;;;;;5011710;28;20469;-65
2022/05/15 06:27:02;;;;;;;8.07;4.10;;;22.20;89.60;;;;;;5011395;28;20025;-72
2022/05/15 06:29:29;;;;;;;9.68;3.97;;;22.10;88.00;;;;;;5007491;28;20052;-70
2022/05/15 06:31:54;;;;;;;11.55;4.25;;;22.00;86.00;;;;;;5011747;28;20018;-73
2022/05/15 06:34:21;;;;;;;8.57;4.53;;;22.20;86.90;;;;;;5011264;28;20044;-72
2022/05/15 06:36:47;;;;;;;9.20;4.53;;;22.20;88.90;;;;;;5011346;28;20025;-70
2022/05/15 06:39:13;;;;;;;6.03;3.70;;;22.40;88.30;;;;;;5009836;28;20079;-71
2022/05/15 06:41:39;;;;;;;10.77;4.07;;;22.50;90.00;;;;;;5011536;28;20022;-72
2022/05/15 06:44:05;;;;;;;6.03;4.25;;;22.60;85.10;;;;;;5011782;28;20137;-73
2022/05/15 06:46:31;;;;;;;7.20;3.60;;;22.80;84.30;;;;;;5011325;28;20038;-69
2022/05/15 06:48:57;;;;;;;8.80;4.63;;;22.90;81.80;;;;;;5011024;28;20037;-66
2022/05/15 06:51:23;;;;;;;8.48;3.65;;;23.00;81.10;;;;;;5011333;28;20465;-73
2022/05/15 06:53:50;;;;;;;9.38;3.95;;;22.50;77.10;;;;;;5011625;28;20022;-73
2022/05/15 06:59:02;;;;;;;8.77;3.85;;;22.80;83.00;;;;;;5009679;28;20030;-72
2022/05/15 07:01:28;;;;;;;7.05;4.55;;;23.10;82.10;;;;;;5010887;28;20025;-68
2022/05/15 07:03:55;;;;;;;7.55;4.30;;;23.50;81.80;;;;;;5010903;28;20447;-74
2022/05/15 07:06:21;;;;;;;9.80;4.35;;;23.70;81.20;;;;;;5010481;28;20105;-72
2022/05/15 07:08:48;;;;;;;10.20;4.07;;;23.70;80.20;;;;;;5010388;28;20070;-67
2022/05/15 07:11:15;;;;;;;6.70;3.55;;;23.70;80.10;;;;;;5010082;28;20026;-63
2022/05/15 07:13:41;;;;;;;6.15;3.40;;;23.90;79.00;;;;;;5010826;28;20057;-72
2022/05/15 07:16:08;;;;;;;8.45;3.58;;;24.00;75.50;;;;;;5011423;28;20104;-70
2022/05/15 07:18:36;;;;;;;8.88;4.30;;;23.70;80.30;;;;;;5010158;28;20496;-73
2022/05/15 07:21:02;;;;;;;8.93;4.32;;;24.20;77.00;;;;;;5015034;28;20052;-73
2022/05/15 07:23:28;;;;;;;8.32;3.50;;;24.30;74.50;;;;;;5014907;28;20022;-70
2022/05/15 07:25:57;;;;;;;7.68;3.28;;;24.40;76.80;;;;;;5014711;28;20018;-67
2022/05/15 07:28:23;;;;;;;7.90;3.03;;;24.50;73.30;;;;;;5014171;28;20014;-71
2022/05/15 07:30:50;;;;;;;7.10;3.50;;;24.40;70.40;;;;;;5014312;28;20100;-72
2022/05/15 07:33:24;;;;;;;4.80;3.33;;;24.10;73.10;;;;;;5001280;28;20168;-72
2022/05/15 07:35:51;;;;;;;9.07;3.70;;;24.50;75.00;;;;;;5021943;28;20028;-69
2022/05/15 07:38:17;;;;;;;6.50;3.30;;;24.80;74.10;;;;;;5017406;28;20026;-72
2022/05/15 07:40:43;;;;;;;7.78;3.13;;;24.90;72.60;;;;;;5008512;28;20045;-65
2022/05/15 07:43:14;;;;;;;8.05;2.75;;;25.20;73.60;;;;;;4994543;28;20425;-72
2022/05/15 07:45:40;;;;;;;7.05;3.17;;;25.10;69.20;;;;;;4994568;28;20060;-71
2022/05/15 07:48:07;;;;;;;7.20;3.58;;;25.00;69.10;;;;;;4996540;28;20033;-73
2022/05/15 07:50:33;;;;;;;6.22;2.75;;;24.80;68.00;;;;;;4994080;28;20137;-68
2022/05/15 07:52:59;;;;;;;4.53;2.63;;;24.90;71.10;;;;;;4994192;28;20077;-71
2022/05/15 07:55:25;;;;;;;5.28;2.90;;;25.00;68.30;;;;;;5001269;28;20484;-71
2022/05/15 07:57:51;;;;;;;4.90;3.22;;;25.00;70.40;;;;;;4994279;28;20078;-71
2022/05/15 08:00:18;;;;;;;6.25;2.95;;;25.10;68.80;;;;;;4994548;28;20488;-68
2022/05/15 08:02:44;;;;;;;6.32;3.08;;;25.00;67.60;;;;;;5006678;28;20026;-73
2022/05/15 08:08:09;;;;;;;5.18;2.65;;;24.80;67.20;;;;;;5012870;28;20022;-64
2022/05/15 08:10:41;;;;;;;6.75;2.42;;;25.10;65.60;;;;;;5005619;28;20045;-72
2022/05/15 08:13:10;;;;;;;10.20;3.28;;;25.40;67.80;;;;;;4999767;28;20054;-72
2022/05/15 08:15:37;;;;;;;8.35;3.00;;;25.30;66.30;;;;;;4993953;28;20081;-65
2022/05/15 08:23:45;;;;;;;7.85;2.47;;;25.60;62.40;;;;;;5000458;28;20026;-71
2022/05/15 08:26:11;;;;;;;2.95;2.40;;;25.60;65.30;;;;;;5002120;28;20022;-66
2022/05/15 08:28:38;;;;;;;3.85;2.15;;;25.70;62.40;;;;;;5000637;28;20036;-69
2022/05/15 08:31:06;;;;;;;7.68;2.15;;;25.30;62.10;;;;;;4998758;28;20030;-67
2022/05/15 08:33:33;;;;;;;6.60;2.60;;;25.20;61.80;;;;;;5010126;28;20030;-71
2022/05/15 08:35:59;;;;;;;3.90;2.17;;;25.50;63.30;;;;;;5001927;28;20030;-74
2022/05/15 08:38:25;;;;;;;3.95;2.63;;;25.60;62.40;;;;;;5016488;28;20053;-72
2022/05/15 08:41:08;;;;;;;4.43;2.17;;;25.60;63.20;;;;;;5014253;28;20379;-73
2022/05/15 08:43:45;;;;;;;7.05;2.55;;;26.00;64.70;;;;;;5012792;28;20037;-72
2022/05/15 08:46:45;;;;;;;4.90;2.55;;;25.90;62.40;;;;;;5013200;28;20100;-68
2022/05/15 08:49:22;;;;;;;51.15;12.70;;;25.50;61.40;;;;;;5032293;28;20120;-69
2022/05/15 08:51:59;;;;;;;60.08;12.68;;;25.60;66.40;;;;;;5020586;28;20390;-61
2022/05/15 08:54:26;;;;;;;5.63;2.72;;;26.30;66.90;;;;;;5013018;28;20049;-61
2022/05/15 08:56:53;;;;;;;7.35;3.13;;;26.20;60.60;;;;;;5016309;28;20026;-69
2022/05/15 08:59:27;;;;;;;6.40;2.92;;;26.00;60.90;;;;;;5014788;28;20108;-69
2022/05/15 09:01:56;;;;;;;10.77;3.22;;;25.70;63.40;;;;;;5013215;28;20388;-65
2022/05/15 09:04:23;;;;;;;12.68;2.92;;;25.80;63.70;;;;;;5013106;28;20030;-68
2022/05/15 09:07:19;;;;;;;11.50;2.97;;;26.10;65.30;;;;;;5012397;28;20112;-68
2022/05/15 09:10:10;;;;;;;6.40;2.70;;;26.10;64.00;;;;;;5012470;28;20041;-69
2022/05/15 09:12:36;;;;;;;5.72;2.53;;;26.60;63.20;;;;;;5012580;28;20030;-69
2022/05/15 09:15:21;;;;;;;8.80;2.42;;;26.30;63.80;;;;;;5012387;28;20025;-63
2022/05/15 09:17:58;;;;;;;6.18;2.08;;;26.50;60.40;;;;;;5012754;28;20037;-70
2022/05/15 09:20:25;;;;;;;6.07;2.58;;;26.40;58.00;;;;;;5018268;28;20026;-72
2022/05/15 09:23:21;;;;;;;8.20;2.60;;;25.90;58.80;;;;;;5012894;28;20562;-66
2022/05/15 09:25:52;;;;;;;8.45;2.85;;;26.20;59.70;;;;;;5021454;28;20056;-70
2022/05/15 09:28:18;;;;;;;9.13;2.53;;;26.10;62.10;;;;;;4996519;28;20033;-67
2022/05/15 09:30:48;;;;;;;6.05;2.45;;;26.30;62.70;;;;;;5011865;28;20030;-63
2022/05/15 09:33:28;;;;;;;8.02;3.10;;;26.60;62.50;;;;;;5011868;28;20030;-66
2022/05/15 09:36:24;;;;;;;12.23;3.88;;;27.10;62.40;;;;;;5011498;28;20083;-67
2022/05/15 09:39:27;;;;;;;5.53;2.50;;;27.10;61.70;;;;;;5012446;28;20049;-63
2022/05/15 09:45:07;;;;;;;6.70;2.17;;;26.70;57.40;;;;;;5012601;28;20452;-63
2022/05/15 09:47:45;;;;;;;9.50;2.10;;;26.30;59.20;;;;;;5012653;28;20045;-64
2022/05/15 09:50:50;;;;;;;3.00;2.17;;;26.00;61.10;;;;;;5012951;28;20046;-65
2022/05/15 09:53:36;;;;;;;8.23;2.25;;;26.30;59.30;;;;;;5011559;28;20026;-64
2022/05/15 09:56:29;;;;;;;15.48;2.80;;;26.60;59.20;;;;;;5018086;28;20022;-64
2022/05/15 09:59:08;;;;;;;5.75;2.65;;;26.60;59.20;;;;;;4912405;29;20044;-68
2022/05/15 10:01:50;;;;;;;7.40;1.95;;;26.80;61.10;;;;;;4912838;29;20047;-69
2022/05/15 10:04:28;;;;;;;7.05;2.15;;;27.10;58.80;;;;;;4912850;29;20538;-67
2022/05/15 10:06:59;;;;;;;5.10;2.20;;;27.00;58.80;;;;;;4912293;29;20418;-70
2022/05/15 10:09:32;;;;;;;6.78;2.15;;;26.90;57.80;;;;;;4913086;29;20044;-66
2022/05/15 10:12:20;;;;;;;5.47;2.10;;;26.40;55.80;;;;;;4910583;29;20040;-66
2022/05/15 10:14:55;;;;;;;5.53;2.10;;;26.40;57.00;;;;;;4910707;29;20048;-71
2022/05/15 10:17:23;;;;;;;5.82;1.98;;;26.60;56.60;;;;;;4912713;29;20052;-68
2022/05/15 10:20:04;;;;;;;4.30;2.00;;;26.70;56.30;;;;;;4913555;29;20056;-68
2022/05/15 10:22:48;;;;;;;3.00;1.83;;;26.50;55.00;;;;;;4903811;29;20625;-69
2022/05/15 10:25:25;;;;;;;2.95;1.67;;;26.90;58.40;;;;;;4922683;29;20035;-68
2022/05/15 10:28:08;;;;;;;4.38;1.90;;;27.10;59.00;;;;;;4915582;29;20032;-67
2022/05/15 10:30:46;;;;;;;5.47;2.22;;;26.70;56.00;;;;;;4902095;29;20072;-70
2022/05/15 10:33:19;;;;;;;2.90;2.17;;;26.40;56.70;;;;;;4912265;29;20036;-67
2022/05/15 10:35:53;;;;;;;3.80;2.13;;;26.40;56.40;;;;;;4957795;28;20503;-67
2022/05/15 10:38:54;;;;;;;4.22;2.13;;;26.40;58.60;;;;;;5011367;28;20041;-68
2022/05/15 10:41:49;;;;;;;2.95;2.05;;;26.50;58.80;;;;;;5000156;28;20136;-66
2022/05/15 10:44:24;;;;;;;4.60;2.30;;;26.50;57.20;;;;;;5010277;28;20439;-65
2022/05/15 10:46:56;;;;;;;3.05;1.80;;;26.40;57.30;;;;;;5009939;28;20088;-68
2022/05/15 10:49:24;;;;;;;6.18;2.13;;;26.60;60.30;;;;;;5011557;28;20040;-69
2022/05/15 10:52:21;;;;;;;2.60;1.80;;;26.70;57.90;;;;;;5012343;28;20041;-69
2022/05/15 10:58:16;;;;;;;4.85;1.95;;;26.90;58.00;;;;;;5001104;28;20040;-66
2022/05/15 11:00:56;;;;;;;4.90;2.05;;;26.60;58.00;;;;;;5006791;28;20025;-65
2022/05/15 11:03:46;;;;;;;6.07;2.15;;;26.80;57.90;;;;;;5007431;28;20385;-67
2022/05/15 11:06:42;;;;;;;3.03;1.80;;;26.60;56.10;;;;;;5013782;28;20026;-64
2022/05/15 11:09:17;;;;;;;2.38;1.73;;;26.60;56.80;;;;;;5014374;28;20034;-69
2022/05/15 11:12:02;;;;;;;4.65;2.22;;;26.50;57.20;;;;;;5004689;28;20097;-68
2022/05/15 11:14:34;;;;;;;4.07;1.75;;;26.50;59.40;;;;;;5014957;28;20026;-64
2022/05/15 11:17:20;;;;;;;2.60;1.73;;;26.70;56.90;;;;;;5014703;28;20738;-65
2022/05/15 11:19:46;;;;;;;6.03;2.08;;;26.80;57.00;;;;;;5008992;28;20042;-68
2022/05/15 11:22:19;;;;;;;4.63;1.63;;;27.00;56.00;;;;;;5011401;28;20487;-66
2022/05/15 11:25:19;;;;;;;5.63;1.80;;;26.80;56.00;;;;;;5018359;28;20041;-69
2022/05/15 11:28:05;;;;;;;4.72;1.70;;;26.70;56.00;;;;;;5017152;28;20030;-65
2022/05/15 11:30:38;;;;;;;2.65;1.67;;;26.80;54.00;;;;;;5010839;28;20506;-68
2022/05/15 11:33:24;;;;;;;2.90;1.85;;;26.70;58.20;;;;;;5012861;28;20057;-68
2022/05/15 11:36:14;;;;;;;6.40;2.05;;;26.60;56.60;;;;;;5013827;28;20120;-68
2022/05/15 11:38:55;;;;;;;4.85;1.85;;;26.70;57.10;;;;;;5013281;28;20463;-69
2022/05/15 11:41:42;;;;;;;5.65;2.30;;;26.50;57.20;;;;;;5014474;28;20032;-69
2022/05/15 11:44:23;;;;;;;3.47;1.98;;;26.60;57.20;;;;;;5011266;28;20030;-67
2022/05/15 11:46:48;;;;;;;2.28;1.90;;;26.60;58.50;;;;;;5011174;28;20140;-70
2022/05/15 11:49:35;;;;;;;2.78;1.83;;;26.60;57.70;;;;;;5011400;28;20140;-68
2022/05/15 11:52:04;;;;;;;3.72;1.80;;;26.70;57.70;;;;;;5012281;28;20041;-69
2022/05/15 11:54:45;;;;;;;5.15;1.67;;;26.60;57.00;;;;;;5012458;28;20052;-71
2022/05/15 11:57:13;;;;;;;3.30;2.03;;;26.70;57.10;;;;;;5011835;28;20117;-70
2022/05/15 11:59:56;;;;;;;3.05;2.03;;;26.70;57.60;;;;;;5011147;28;20614;-70
2022/05/15 12:02:31;;;;;;;4.47;2.20;;;26.80;58.50;;;;;;5011144;28;20041;-70
2022/05/15 12:05:21;;;;;;;2.25;1.58;;;26.90;56.50;;;;;;5010799;28;20034;-69
2022/05/15 12:07:56;;;;;;;3.83;1.90;;;26.80;58.50;;;;;;5011382;28;20033;-70
2022/05/15 12:10:34;;;;;;;3.17;2.08;;;26.70;57.90;;;;;;5010352;28;20045;-71
2022/05/15 12:13:09;;;;;;;2.67;1.63;;;26.90;57.40;;;;;;5010655;28;20121;-68
2022/05/15 12:15:40;;;;;;;5.13;2.10;;;27.00;58.50;;;;;;4994314;28;20049;-70
2022/05/15 12:18:43;;;;;;;4.13;2.00;;;27.10;58.90;;;;;;5011654;28;20057;-69
2022/05/15 12:21:12;;;;;;;3.65;1.63;;;27.00;56.00;;;;;;5012678;28;20092;-69
2022/05/15 12:24:29;;;;;;;3.53;1.90;;;26.90;56.50;;;;;;5001461;28;20022;-70
2022/05/15 12:27:02;;;;;;;4.13;2.10;;;26.80;58.30;;;;;;4989853;28;20039;-66
2022/05/15 12:29:38;;;;;;;3.60;1.88;;;26.90;56.90;;;;;;5015290;28;20038;-71
2022/05/15 12:32:14;;;;;;;3.20;1.73;;;27.10;56.40;;;;;;5004175;28;20034;-67
2022/05/15 12:34:46;;;;;;;2.70;1.63;;;27.00;55.60;;;;;;4993077;28;20032;-67
2022/05/15 12:37:26;;;;;;;4.55;1.77;;;26.90;55.40;;;;;;5013013;28;20423;-69
2022/05/15 12:39:55;;;;;;;4.32;2.05;;;26.90;54.80;;;;;;5003287;28;20022;-66
2022/05/15 12:42:32;;;;;;;3.88;1.92;;;26.90;56.10;;;;;;5016813;28;20045;-69
2022/05/15 12:45:18;;;;;;;3.15;1.70;;;27.00;56.20;;;;;;5012716;28;20034;-66
2022/05/15 12:47:43;;;;;;;9.20;2.38;;;27.10;57.30;;;;;;5014571;28;20049;-68
2022/05/15 12:50:21;;;;;;;3.33;1.63;;;27.30;56.60;;;;;;5026530;28;20046;-69
2022/05/15 12:52:55;;;;;;;2.35;1.50;;;27.30;55.20;;;;;;5014017;28;20029;-69
2022/05/15 12:55:32;;;;;;;2.50;1.80;;;27.20;54.40;;;;;;5015434;28;20499;-70
2022/05/15 12:58:00;;;;;;;4.22;2.00;;;27.10;52.90;;;;;;5013471;28;20496;-70
2022/05/15 13:00:37;;;;;;;6.00;2.53;;;27.30;55.90;;;;;;5012384;28;20022;-70
2022/05/15 13:03:08;;;;;;;4.78;2.30;;;27.30;55.50;;;;;;5019216;28;20029;-67
2022/05/15 13:05:38;;;;;;;6.72;2.70;;;27.20;57.30;;;;;;5012593;28;20036;-70
2022/05/15 13:08:07;;;;;;;4.20;2.88;;;27.40;58.30;;;;;;5016913;28;20029;-69
2022/05/15 13:10:36;;;;;;;2.80;1.73;;;27.60;58.70;;;;;;5010695;28;20137;-69
2022/05/15 13:13:08;;;;;;;7.38;2.38;;;27.40;57.10;;;;;;5000634;28;20031;-70
2022/05/15 13:15:35;;;;;;;3.03;1.90;;;27.60;56.80;;;;;;4993774;28;20033;-70
2022/05/15 13:18:08;;;;;;;4.50;1.98;;;27.60;55.30;;;;;;5011231;28;20038;-70
2022/05/15 13:20:40;;;;;;;3.30;1.83;;;27.70;57.30;;;;;;5012921;28;20044;-70
2022/05/15 13:23:11;;;;;;;4.07;1.70;;;27.80;58.00;;;;;;5012870;28;20033;-68
2022/05/15 13:25:43;;;;;;;5.57;2.10;;;27.70;55.10;;;;;;5012953;28;20034;-69